F/V Berriz Patxiku — ECES — position and weather

sailwx.info

Track history (hours):
 
Tides and Currents Weather Stations Pressure Air Temp Water Temp Dewpoint Dewpoint Depression Visibility Wind Speed Wind Dir Waves Ship Positions

F/V Berriz Patxiku

Last reported at 2014-Oct-02 01:33 UTC. Time now 2014-Oct-02 02:27 UTC.
Position N 44°12' W 001°36'.

Length 30 m.

Type: Fishing. MMSI: 224106260.

Date/timePositionNaut miles runAvg speedWind from/ knotsBaromVisibWave heightAir tempDewpointWater temp
2014-Oct-02 01:33N 44°12' W 001°36'12 6.2
2014-Oct-01 23:33N 44°24' W 001°36'6 6.2
2014-Oct-01 22:33N 44°30' W 001°36'1 0.8
2014-Oct-01 21:34N 44°31' W 001°35'1 0.7
2014-Oct-01 20:33N 44°31' W 001°34'7 6.7
2014-Oct-01 19:33N 44°34' W 001°43'4 3.9
2014-Oct-01 18:32N 44°31' W 001°46'9 9.0
2014-Oct-01 17:34N 44°23' W 001°50'9 9.4
2014-Oct-01 16:33N 44°14' W 001°53'10 9.5
2014-Oct-01 15:33N 44°04' W 001°57'10 9.5
2014-Oct-01 14:27N 43°54' W 001°60'910.1
2014-Oct-01 13:33N 43°45' W 002°03'1010.0
2014-Oct-01 12:31N 43°35' W 002°06'9 1.8
2014-Oct-01 07:26N 43°38' W 001°54'1310.4
2014-Oct-01 06:09N 43°49' W 001°44'2 3.1
2014-Oct-01 05:33N 43°51' W 001°43'1 0.4
2014-Oct-01 03:33N 43°51' W 001°44'3 0.5
2014-Sep-30 20:32N 43°48' W 001°42'34 4.1
2014-Sep-30 12:17N 43°20' W 002°10'47 9.8
2014-Sep-30 07:30N 44°01' W 001°37'0 0.3
2014-Sep-30 06:33N 44°01' W 001°37'1 0.4
2014-Sep-30 05:17N 44°01' W 001°37'4 5.6
2014-Sep-30 04:33N 43°57' W 001°38'0 0.3
2014-Sep-30 03:33N 43°57' W 001°39'8 8.1
2014-Sep-30 02:33N 44°05' W 001°39'16 1.3
2014-Sep-29 14:31N 43°52' W 001°52'8 8.4
2014-Sep-29 13:33N 43°45' W 001°57'  
2014-Sep-26 08:33N 43°54' W 001°51'1110.2
2014-Sep-26 07:28N 44°04' W 001°45'1010.6
2014-Sep-26 06:32N 44°13' W 001°40'1110.3
2014-Sep-26 05:27N 44°24' W 001°34'3 3.7
2014-Sep-26 04:33N 44°23' W 001°29'3 3.1
2014-Sep-26 03:33N 44°26' W 001°28'2 2.3
2014-Sep-26 02:33N 44°29' W 001°29'0 0.2
2014-Sep-26 01:34N 44°28' W 001°29'0 0.2
2014-Sep-26 00:33N 44°29' W 001°29'1 0.5
2014-Sep-25 23:33N 44°29' W 001°28'1 0.6
2014-Sep-25 22:34N 44°29' W 001°27'2 2.0
2014-Sep-25 21:33N 44°27' W 001°27'0 0.1
2014-Sep-25 20:33N 44°27' W 001°27'2 2.0
2014-Sep-25 19:33N 44°25' W 001°26'1 1.0
2014-Sep-25 18:30N 44°26' W 001°26'1 1.3
2014-Sep-25 17:33N 44°25' W 001°27'1 0.5
2014-Sep-25 16:28N 44°26' W 001°27'4 3.9
2014-Sep-25 15:33N 44°27' W 001°22'0 0.3
2014-Sep-25 14:33N 44°27' W 001°22'0 0.5
2014-Sep-25 13:34N 44°27' W 001°23'1 0.6
2014-Sep-25 12:33N 44°27' W 001°24'1 0.7
2014-Sep-25 11:33N 44°27' W 001°25'1 0.9
2014-Sep-25 10:33N 44°27' W 001°26'1 0.9
2014-Sep-25 09:31N 44°26' W 001°27'1 0.9
2014-Sep-25 08:34N 44°26' W 001°28'1 0.6
2014-Sep-25 06:15N 44°25' W 001°29'1 1.3
2014-Sep-25 05:33N 44°25' W 001°28'2 1.6
2014-Sep-25 04:33N 44°24' W 001°30'3 2.6
2014-Sep-25 03:32N 44°21' W 001°31'43 1.0
2014-Sep-23 08:31N 43°40' W 001°48'11 0.7
2014-Sep-22 17:17N 43°33' W 001°58'17 8.8
2014-Sep-22 15:24N 43°19' W 002°11'16 2.2
2014-Sep-22 08:17N 43°32' W 001°58'19 6.2
2014-Sep-22 05:14N 43°48' W 001°44'1 0.2
2014-Sep-22 02:29N 43°48' W 001°43'  
Track history (hours):
 
Tides and Currents Weather Stations Pressure Air Temp Water Temp Dewpoint Dewpoint Depression Visibility Wind Speed Wind Dir Waves Ship Positions

F/V Berriz Patxiku

Last reported at 2014-Oct-02 01:33 UTC. Time now 2014-Oct-02 02:27 UTC.
Position N 44°12' W 001°36'.

Length 30 m.

Type: Fishing. MMSI: 224106260.

Date/timePositionNaut miles runAvg speedWind from/ knotsBaromVisibWave heightAir tempDewpointWater temp
2014-Oct-02 01:33N 44°12' W 001°36'12 6.2
2014-Oct-01 23:33N 44°24' W 001°36'6 6.2
2014-Oct-01 22:33N 44°30' W 001°36'1 0.8
2014-Oct-01 21:34N 44°31' W 001°35'1 0.7
2014-Oct-01 20:33N 44°31' W 001°34'7 6.7
2014-Oct-01 19:33N 44°34' W 001°43'4 3.9
2014-Oct-01 18:32N 44°31' W 001°46'9 9.0
2014-Oct-01 17:34N 44°23' W 001°50'9 9.4
2014-Oct-01 16:33N 44°14' W 001°53'10 9.5
2014-Oct-01 15:33N 44°04' W 001°57'10 9.5
2014-Oct-01 14:27N 43°54' W 001°60'910.1
2014-Oct-01 13:33N 43°45' W 002°03'1010.0
2014-Oct-01 12:31N 43°35' W 002°06'9 1.8
2014-Oct-01 07:26N 43°38' W 001°54'1310.4
2014-Oct-01 06:09N 43°49' W 001°44'2 3.1
2014-Oct-01 05:33N 43°51' W 001°43'1 0.4
2014-Oct-01 03:33N 43°51' W 001°44'3 0.5
2014-Sep-30 20:32N 43°48' W 001°42'34 4.1
2014-Sep-30 12:17N 43°20' W 002°10'47 9.8
2014-Sep-30 07:30N 44°01' W 001°37'0 0.3
2014-Sep-30 06:33N 44°01' W 001°37'1 0.4
2014-Sep-30 05:17N 44°01' W 001°37'4 5.6
2014-Sep-30 04:33N 43°57' W 001°38'0 0.3
2014-Sep-30 03:33N 43°57' W 001°39'8 8.1
2014-Sep-30 02:33N 44°05' W 001°39'16 1.3
2014-Sep-29 14:31N 43°52' W 001°52'8 8.4
2014-Sep-29 13:33N 43°45' W 001°57'  
2014-Sep-26 08:33N 43°54' W 001°51'1110.2
2014-Sep-26 07:28N 44°04' W 001°45'1010.6
2014-Sep-26 06:32N 44°13' W 001°40'1110.3
2014-Sep-26 05:27N 44°24' W 001°34'3 3.7
2014-Sep-26 04:33N 44°23' W 001°29'3 3.1
2014-Sep-26 03:33N 44°26' W 001°28'2 2.3
2014-Sep-26 02:33N 44°29' W 001°29'0 0.2
2014-Sep-26 01:34N 44°28' W 001°29'0 0.2
2014-Sep-26 00:33N 44°29' W 001°29'1 0.5
2014-Sep-25 23:33N 44°29' W 001°28'1 0.6
2014-Sep-25 22:34N 44°29' W 001°27'2 2.0
2014-Sep-25 21:33N 44°27' W 001°27'0 0.1
2014-Sep-25 20:33N 44°27' W 001°27'2 2.0
2014-Sep-25 19:33N 44°25' W 001°26'1 1.0
2014-Sep-25 18:30N 44°26' W 001°26'1 1.3
2014-Sep-25 17:33N 44°25' W 001°27'1 0.5
2014-Sep-25 16:28N 44°26' W 001°27'4 3.9
2014-Sep-25 15:33N 44°27' W 001°22'0 0.3
2014-Sep-25 14:33N 44°27' W 001°22'0 0.5
2014-Sep-25 13:34N 44°27' W 001°23'1 0.6
2014-Sep-25 12:33N 44°27' W 001°24'1 0.7
2014-Sep-25 11:33N 44°27' W 001°25'1 0.9
2014-Sep-25 10:33N 44°27' W 001°26'1 0.9
2014-Sep-25 09:31N 44°26' W 001°27'1 0.9
2014-Sep-25 08:34N 44°26' W 001°28'1 0.6
2014-Sep-25 06:15N 44°25' W 001°29'1 1.3
2014-Sep-25 05:33N 44°25' W 001°28'2 1.6
2014-Sep-25 04:33N 44°24' W 001°30'3 2.6
2014-Sep-25 03:32N 44°21' W 001°31'43 1.0
2014-Sep-23 08:31N 43°40' W 001°48'11 0.7
2014-Sep-22 17:17N 43°33' W 001°58'17 8.8
2014-Sep-22 15:24N 43°19' W 002°11'16 2.2
2014-Sep-22 08:17N 43°32' W 001°58'19 6.2
2014-Sep-22 05:14N 43°48' W 001°44'1 0.2
2014-Sep-22 02:29N 43°48' W 001°43'  

Dump ship's entire track history